sensor_id;sensor_type;location;lat;lon;timestamp;P1;durP1;ratioP1;P2;durP2;ratioP2
1136;SDS011;557;48.466;7.950;2023-12-28T00:02:18;5.07;;;4.27;;
1136;SDS011;557;48.466;7.950;2023-12-28T00:04:45;5.03;;;4.03;;
1136;SDS011;557;48.466;7.950;2023-12-28T00:07:13;6.60;;;4.70;;
1136;SDS011;557;48.466;7.950;2023-12-28T00:09:43;4.30;;;3.90;;
1136;SDS011;557;48.466;7.950;2023-12-28T00:12:09;4.67;;;4.27;;
1136;SDS011;557;48.466;7.950;2023-12-28T00:14:39;6.70;;;4.73;;
1136;SDS011;557;48.466;7.950;2023-12-28T00:17:06;4.53;;;4.13;;
1136;SDS011;557;48.466;7.950;2023-12-28T00:19:33;7.20;;;5.03;;
1136;SDS011;557;48.466;7.950;2023-12-28T00:22:00;7.13;;;4.57;;
1136;SDS011;557;48.466;7.950;2023-12-28T00:24:29;8.00;;;5.30;;
1136;SDS011;557;48.466;7.950;2023-12-28T00:26:55;5.83;;;5.10;;
1136;SDS011;557;48.466;7.950;2023-12-28T00:29:22;10.60;;;4.97;;
1136;SDS011;557;48.466;7.950;2023-12-28T00:31:49;5.30;;;4.60;;
1136;SDS011;557;48.466;7.950;2023-12-28T00:34:16;5.47;;;4.43;;
1136;SDS011;557;48.466;7.950;2023-12-28T00:36:43;5.07;;;4.60;;
1136;SDS011;557;48.466;7.950;2023-12-28T00:39:10;5.33;;;4.83;;
1136;SDS011;557;48.466;7.950;2023-12-28T00:41:38;5.90;;;4.67;;
1136;SDS011;557;48.466;7.950;2023-12-28T00:44:07;6.67;;;4.00;;
1136;SDS011;557;48.466;7.950;2023-12-28T00:46:34;4.83;;;3.87;;
1136;SDS011;557;48.466;7.950;2023-12-28T00:49:01;4.30;;;3.90;;
1136;SDS011;557;48.466;7.950;2023-12-28T00:51:28;4.43;;;4.03;;
1136;SDS011;557;48.466;7.950;2023-12-28T00:53:55;4.50;;;4.10;;
1136;SDS011;557;48.466;7.950;2023-12-28T00:56:22;6.27;;;4.40;;
1136;SDS011;557;48.466;7.950;2023-12-28T00:58:50;4.93;;;4.20;;
1136;SDS011;557;48.466;7.950;2023-12-28T01:01:17;4.37;;;3.97;;
1136;SDS011;557;48.466;7.950;2023-12-28T01:03:44;4.47;;;4.07;;
1136;SDS011;557;48.466;7.950;2023-12-28T01:06:11;8.03;;;4.23;;
1136;SDS011;557;48.466;7.950;2023-12-28T01:08:37;4.67;;;4.10;;
1136;SDS011;557;48.466;7.950;2023-12-28T01:11:04;4.70;;;4.20;;
1136;SDS011;557;48.466;7.950;2023-12-28T01:13:31;5.50;;;4.90;;
1136;SDS011;557;48.466;7.950;2023-12-28T01:16:00;4.57;;;4.17;;
1136;SDS011;557;48.466;7.950;2023-12-28T01:18:26;5.37;;;4.90;;
1136;SDS011;557;48.466;7.950;2023-12-28T01:20:53;4.67;;;4.27;;
1136;SDS011;557;48.466;7.950;2023-12-28T01:23:20;4.87;;;4.50;;
1136;SDS011;557;48.466;7.950;2023-12-28T01:25:47;4.73;;;4.43;;
1136;SDS011;557;48.466;7.950;2023-12-28T01:28:14;4.57;;;4.20;;
1136;SDS011;557;48.466;7.950;2023-12-28T01:30:41;7.20;;;4.83;;
1136;SDS011;557;48.466;7.950;2023-12-28T01:33:10;4.90;;;4.50;;
1136;SDS011;557;48.466;7.950;2023-12-28T01:35:37;5.37;;;4.87;;
1136;SDS011;557;48.466;7.950;2023-12-28T01:38:04;5.60;;;5.20;;
1136;SDS011;557;48.466;7.950;2023-12-28T01:40:31;5.83;;;5.40;;
1136;SDS011;557;48.466;7.950;2023-12-28T01:42:58;5.50;;;5.10;;
1136;SDS011;557;48.466;7.950;2023-12-28T01:45:24;6.40;;;5.90;;
1136;SDS011;557;48.466;7.950;2023-12-28T01:47:52;5.80;;;5.40;;
1136;SDS011;557;48.466;7.950;2023-12-28T01:50:24;6.00;;;5.60;;
1136;SDS011;557;48.466;7.950;2023-12-28T01:52:53;5.70;;;5.30;;
1136;SDS011;557;48.466;7.950;2023-12-28T01:55:21;6.40;;;6.00;;
1136;SDS011;557;48.466;7.950;2023-12-28T01:57:49;5.97;;;5.57;;
1136;SDS011;557;48.466;7.950;2023-12-28T02:00:16;5.90;;;5.60;;
1136;SDS011;557;48.466;7.950;2023-12-28T02:02:43;5.90;;;5.40;;
1136;SDS011;557;48.466;7.950;2023-12-28T02:05:11;5.90;;;5.50;;
1136;SDS011;557;48.466;7.950;2023-12-28T02:07:39;6.13;;;5.73;;
1136;SDS011;557;48.466;7.950;2023-12-28T02:10:07;6.60;;;6.10;;
1136;SDS011;557;48.466;7.950;2023-12-28T02:12:34;5.70;;;5.30;;
1136;SDS011;557;48.466;7.950;2023-12-28T02:15:01;6.30;;;5.87;;
1136;SDS011;557;48.466;7.950;2023-12-28T02:17:30;6.97;;;6.47;;
1136;SDS011;557;48.466;7.950;2023-12-28T02:20:05;6.63;;;6.13;;
1136;SDS011;557;48.466;7.950;2023-12-28T02:22:33;6.00;;;5.60;;
1136;SDS011;557;48.466;7.950;2023-12-28T02:25:06;6.27;;;5.87;;
1136;SDS011;557;48.466;7.950;2023-12-28T02:27:34;6.33;;;5.83;;
1136;SDS011;557;48.466;7.950;2023-12-28T02:30:03;7.20;;;6.60;;
1136;SDS011;557;48.466;7.950;2023-12-28T02:32:39;6.37;;;5.90;;
1136;SDS011;557;48.466;7.950;2023-12-28T02:35:16;7.07;;;6.57;;
1136;SDS011;557;48.466;7.950;2023-12-28T02:37:46;7.27;;;6.57;;
1136;SDS011;557;48.466;7.950;2023-12-28T02:40:18;6.67;;;6.20;;
1136;SDS011;557;48.466;7.950;2023-12-28T02:42:45;6.87;;;6.47;;
1136;SDS011;557;48.466;7.950;2023-12-28T02:45:13;6.77;;;6.37;;
1136;SDS011;557;48.466;7.950;2023-12-28T02:47:40;6.93;;;6.43;;
1136;SDS011;557;48.466;7.950;2023-12-28T02:50:07;7.03;;;6.53;;
1136;SDS011;557;48.466;7.950;2023-12-28T02:52:34;7.73;;;7.23;;
1136;SDS011;557;48.466;7.950;2023-12-28T02:55:01;10.80;;;9.80;;
1136;SDS011;557;48.466;7.950;2023-12-28T02:57:29;7.83;;;7.33;;
1136;SDS011;557;48.466;7.950;2023-12-28T02:59:56;8.40;;;7.80;;
1136;SDS011;557;48.466;7.950;2023-12-28T03:02:26;7.83;;;7.43;;
1136;SDS011;557;48.466;7.950;2023-12-28T03:04:53;8.27;;;7.77;;
1136;SDS011;557;48.466;7.950;2023-12-28T03:07:20;8.77;;;8.27;;
1136;SDS011;557;48.466;7.950;2023-12-28T03:09:47;8.50;;;8.00;;
1136;SDS011;557;48.466;7.950;2023-12-28T03:12:14;9.93;;;9.40;;
1136;SDS011;557;48.466;7.950;2023-12-28T03:14:43;9.00;;;8.50;;
1136;SDS011;557;48.466;7.950;2023-12-28T03:17:10;9.40;;;8.80;;
1136;SDS011;557;48.466;7.950;2023-12-28T03:19:37;8.90;;;8.50;;
1136;SDS011;557;48.466;7.950;2023-12-28T03:22:03;9.17;;;8.50;;
1136;SDS011;557;48.466;7.950;2023-12-28T03:24:30;9.40;;;8.90;;
1136;SDS011;557;48.466;7.950;2023-12-28T03:26:57;9.57;;;9.00;;
1136;SDS011;557;48.466;7.950;2023-12-28T03:29:24;9.37;;;8.80;;
1136;SDS011;557;48.466;7.950;2023-12-28T03:31:52;9.43;;;8.73;;
1136;SDS011;557;48.466;7.950;2023-12-28T03:34:19;9.90;;;9.40;;
1136;SDS011;557;48.466;7.950;2023-12-28T03:36:47;9.27;;;8.77;;
1136;SDS011;557;48.466;7.950;2023-12-28T03:39:14;8.80;;;8.40;;
1136;SDS011;557;48.466;7.950;2023-12-28T03:41:44;9.50;;;9.00;;
1136;SDS011;557;48.466;7.950;2023-12-28T03:44:11;9.60;;;9.00;;
1136;SDS011;557;48.466;7.950;2023-12-28T03:46:38;9.20;;;8.70;;
1136;SDS011;557;48.466;7.950;2023-12-28T03:49:06;9.40;;;8.80;;
1136;SDS011;557;48.466;7.950;2023-12-28T03:51:33;10.23;;;9.40;;
1136;SDS011;557;48.466;7.950;2023-12-28T03:54:00;9.40;;;8.90;;
1136;SDS011;557;48.466;7.950;2023-12-28T03:56:27;9.80;;;9.30;;
1136;SDS011;557;48.466;7.950;2023-12-28T03:58:55;9.53;;;9.00;;
1136;SDS011;557;48.466;7.950;2023-12-28T04:01:22;9.40;;;9.00;;
1136;SDS011;557;48.466;7.950;2023-12-28T04:03:50;9.40;;;9.00;;
1136;SDS011;557;48.466;7.950;2023-12-28T04:06:18;9.43;;;8.93;;
1136;SDS011;557;48.466;7.950;2023-12-28T04:08:45;9.53;;;9.03;;
1136;SDS011;557;48.466;7.950;2023-12-28T04:11:11;9.73;;;9.10;;
1136;SDS011;557;48.466;7.950;2023-12-28T04:13:38;10.30;;;9.70;;
1136;SDS011;557;48.466;7.950;2023-12-28T04:16:05;9.73;;;9.23;;
1136;SDS011;557;48.466;7.950;2023-12-28T04:18:34;9.50;;;9.00;;
1136;SDS011;557;48.466;7.950;2023-12-28T04:21:01;10.30;;;9.53;;
1136;SDS011;557;48.466;7.950;2023-12-28T04:23:29;9.57;;;8.97;;
1136;SDS011;557;48.466;7.950;2023-12-28T04:25:57;9.53;;;9.03;;
1136;SDS011;557;48.466;7.950;2023-12-28T04:28:24;9.60;;;9.00;;
1136;SDS011;557;48.466;7.950;2023-12-28T04:30:51;9.57;;;9.07;;
1136;SDS011;557;48.466;7.950;2023-12-28T04:33:18;9.83;;;9.13;;
1136;SDS011;557;48.466;7.950;2023-12-28T04:35:45;9.53;;;9.03;;
1136;SDS011;557;48.466;7.950;2023-12-28T04:38:12;9.83;;;9.23;;
1136;SDS011;557;48.466;7.950;2023-12-28T04:40:40;9.70;;;9.20;;
1136;SDS011;557;48.466;7.950;2023-12-28T04:43:08;9.63;;;9.07;;
1136;SDS011;557;48.466;7.950;2023-12-28T04:45:35;9.73;;;9.23;;
1136;SDS011;557;48.466;7.950;2023-12-28T04:48:01;10.10;;;9.50;;
1136;SDS011;557;48.466;7.950;2023-12-28T04:50:29;9.87;;;9.40;;
1136;SDS011;557;48.466;7.950;2023-12-28T04:52:56;9.83;;;9.30;;
1136;SDS011;557;48.466;7.950;2023-12-28T04:55:22;9.80;;;9.30;;
1136;SDS011;557;48.466;7.950;2023-12-28T04:57:51;9.30;;;8.90;;
1136;SDS011;557;48.466;7.950;2023-12-28T05:00:18;10.17;;;9.60;;
1136;SDS011;557;48.466;7.950;2023-12-28T05:02:45;9.27;;;8.77;;
1136;SDS011;557;48.466;7.950;2023-12-28T05:05:12;9.83;;;9.20;;
1136;SDS011;557;48.466;7.950;2023-12-28T05:07:39;10.40;;;9.60;;
1136;SDS011;557;48.466;7.950;2023-12-28T05:10:07;10.20;;;9.57;;
1136;SDS011;557;48.466;7.950;2023-12-28T05:12:34;10.40;;;9.70;;
1136;SDS011;557;48.466;7.950;2023-12-28T05:15:02;10.10;;;9.27;;
1136;SDS011;557;48.466;7.950;2023-12-28T05:17:30;9.73;;;9.20;;
1136;SDS011;557;48.466;7.950;2023-12-28T05:19:57;9.83;;;9.33;;
1136;SDS011;557;48.466;7.950;2023-12-28T05:22:24;10.13;;;9.53;;
1136;SDS011;557;48.466;7.950;2023-12-28T05:24:50;9.63;;;9.13;;
1136;SDS011;557;48.466;7.950;2023-12-28T05:27:17;9.70;;;9.20;;
1136;SDS011;557;48.466;7.950;2023-12-28T05:29:45;10.13;;;9.43;;
1136;SDS011;557;48.466;7.950;2023-12-28T05:32:13;10.17;;;9.57;;
1136;SDS011;557;48.466;7.950;2023-12-28T05:34:41;10.13;;;9.53;;
1136;SDS011;557;48.466;7.950;2023-12-28T05:37:08;9.90;;;9.30;;
1136;SDS011;557;48.466;7.950;2023-12-28T05:39:35;9.97;;;9.37;;
1136;SDS011;557;48.466;7.950;2023-12-28T05:42:02;10.07;;;9.47;;
1136;SDS011;557;48.466;7.950;2023-12-28T05:44:29;10.23;;;9.53;;
1136;SDS011;557;48.466;7.950;2023-12-28T05:46:56;9.50;;;9.00;;
1136;SDS011;557;48.466;7.950;2023-12-28T05:49:24;10.13;;;9.43;;
1136;SDS011;557;48.466;7.950;2023-12-28T05:51:53;9.80;;;9.30;;
1136;SDS011;557;48.466;7.950;2023-12-28T05:54:20;10.20;;;9.60;;
1136;SDS011;557;48.466;7.950;2023-12-28T05:56:47;10.90;;;10.30;;
1136;SDS011;557;48.466;7.950;2023-12-28T05:59:14;10.13;;;9.53;;
1136;SDS011;557;48.466;7.950;2023-12-28T06:01:41;10.47;;;9.83;;
1136;SDS011;557;48.466;7.950;2023-12-28T06:04:09;9.80;;;9.20;;
1136;SDS011;557;48.466;7.950;2023-12-28T06:06:37;9.77;;;9.17;;
1136;SDS011;557;48.466;7.950;2023-12-28T06:09:04;9.40;;;8.90;;
1136;SDS011;557;48.466;7.950;2023-12-28T06:11:31;9.73;;;9.23;;
1136;SDS011;557;48.466;7.950;2023-12-28T06:13:58;9.37;;;8.73;;
1136;SDS011;557;48.466;7.950;2023-12-28T06:16:24;9.37;;;8.77;;
1136;SDS011;557;48.466;7.950;2023-12-28T06:18:51;9.47;;;8.97;;
1136;SDS011;557;48.466;7.950;2023-12-28T06:21:18;9.07;;;8.60;;
1136;SDS011;557;48.466;7.950;2023-12-28T06:23:47;9.40;;;8.80;;
1136;SDS011;557;48.466;7.950;2023-12-28T06:26:14;9.03;;;8.63;;
1136;SDS011;557;48.466;7.950;2023-12-28T06:28:40;9.43;;;8.70;;
1136;SDS011;557;48.466;7.950;2023-12-28T06:31:07;9.87;;;9.17;;
1136;SDS011;557;48.466;7.950;2023-12-28T06:33:34;8.70;;;8.30;;
1136;SDS011;557;48.466;7.950;2023-12-28T06:36:04;9.80;;;9.20;;
1136;SDS011;557;48.466;7.950;2023-12-28T06:38:31;10.00;;;9.40;;
1136;SDS011;557;48.466;7.950;2023-12-28T06:41:00;9.43;;;8.93;;
1136;SDS011;557;48.466;7.950;2023-12-28T06:43:26;10.27;;;9.67;;
1136;SDS011;557;48.466;7.950;2023-12-28T06:45:54;9.87;;;9.17;;
1136;SDS011;557;48.466;7.950;2023-12-28T06:48:20;10.23;;;9.63;;
1136;SDS011;557;48.466;7.950;2023-12-28T06:50:47;9.97;;;9.33;;
1136;SDS011;557;48.466;7.950;2023-12-28T06:53:14;9.27;;;8.70;;
1136;SDS011;557;48.466;7.950;2023-12-28T06:55:43;9.60;;;9.00;;
1136;SDS011;557;48.466;7.950;2023-12-28T06:58:12;9.10;;;8.60;;
1136;SDS011;557;48.466;7.950;2023-12-28T07:00:38;9.87;;;9.27;;
1136;SDS011;557;48.466;7.950;2023-12-28T07:03:06;12.17;;;11.17;;
1136;SDS011;557;48.466;7.950;2023-12-28T07:05:33;11.83;;;10.73;;
1136;SDS011;557;48.466;7.950;2023-12-28T07:08:00;10.43;;;9.73;;
1136;SDS011;557;48.466;7.950;2023-12-28T07:10:27;10.77;;;9.97;;
1136;SDS011;557;48.466;7.950;2023-12-28T07:12:54;10.30;;;9.60;;
1136;SDS011;557;48.466;7.950;2023-12-28T07:15:22;9.80;;;8.90;;
1136;SDS011;557;48.466;7.950;2023-12-28T07:17:50;9.77;;;9.10;;
1136;SDS011;557;48.466;7.950;2023-12-28T07:20:17;10.00;;;9.40;;
1136;SDS011;557;48.466;7.950;2023-12-28T07:22:43;9.87;;;9.23;;
1136;SDS011;557;48.466;7.950;2023-12-28T07:25:11;10.53;;;9.57;;
1136;SDS011;557;48.466;7.950;2023-12-28T07:27:37;10.30;;;9.50;;
1136;SDS011;557;48.466;7.950;2023-12-28T07:30:05;9.47;;;8.87;;
1136;SDS011;557;48.466;7.950;2023-12-28T07:32:34;9.47;;;8.90;;
1136;SDS011;557;48.466;7.950;2023-12-28T07:35:01;10.30;;;9.60;;
1136;SDS011;557;48.466;7.950;2023-12-28T07:37:29;10.97;;;10.17;;
1136;SDS011;557;48.466;7.950;2023-12-28T07:39:56;10.07;;;9.53;;
1136;SDS011;557;48.466;7.950;2023-12-28T07:42:23;10.10;;;9.50;;
1136;SDS011;557;48.466;7.950;2023-12-28T07:44:50;10.20;;;9.60;;
1136;SDS011;557;48.466;7.950;2023-12-28T07:47:17;10.37;;;9.77;;
1136;SDS011;557;48.466;7.950;2023-12-28T07:49:45;10.30;;;9.60;;
1136;SDS011;557;48.466;7.950;2023-12-28T07:52:12;10.30;;;9.63;;
1136;SDS011;557;48.466;7.950;2023-12-28T07:54:38;10.10;;;9.40;;
1136;SDS011;557;48.466;7.950;2023-12-28T07:57:05;10.67;;;10.07;;
1136;SDS011;557;48.466;7.950;2023-12-28T07:59:32;10.70;;;10.03;;
1136;SDS011;557;48.466;7.950;2023-12-28T08:01:59;10.53;;;9.83;;
1136;SDS011;557;48.466;7.950;2023-12-28T08:04:26;10.23;;;9.63;;
1136;SDS011;557;48.466;7.950;2023-12-28T08:06:54;10.60;;;10.00;;
1136;SDS011;557;48.466;7.950;2023-12-28T08:09:21;11.20;;;10.23;;
1136;SDS011;557;48.466;7.950;2023-12-28T08:11:48;11.13;;;10.43;;
1136;SDS011;557;48.466;7.950;2023-12-28T08:14:16;11.60;;;10.80;;
1136;SDS011;557;48.466;7.950;2023-12-28T08:16:43;11.07;;;10.17;;
1136;SDS011;557;48.466;7.950;2023-12-28T08:19:09;11.20;;;10.40;;
1136;SDS011;557;48.466;7.950;2023-12-28T08:21:37;10.80;;;10.10;;
1136;SDS011;557;48.466;7.950;2023-12-28T08:24:05;11.00;;;10.20;;
1136;SDS011;557;48.466;7.950;2023-12-28T08:26:32;10.50;;;9.90;;
1136;SDS011;557;48.466;7.950;2023-12-28T08:28:59;10.43;;;9.90;;
1136;SDS011;557;48.466;7.950;2023-12-28T08:31:26;10.60;;;9.90;;
1136;SDS011;557;48.466;7.950;2023-12-28T08:33:54;10.60;;;10.00;;
1136;SDS011;557;48.466;7.950;2023-12-28T08:36:21;10.37;;;9.77;;
1136;SDS011;557;48.466;7.950;2023-12-28T08:38:48;11.03;;;10.33;;
1136;SDS011;557;48.466;7.950;2023-12-28T08:41:19;12.20;;;11.30;;
1136;SDS011;557;48.466;7.950;2023-12-28T08:43:46;10.77;;;10.10;;
1136;SDS011;557;48.466;7.950;2023-12-28T08:46:13;10.30;;;9.60;;
1136;SDS011;557;48.466;7.950;2023-12-28T08:48:41;10.40;;;9.70;;
1136;SDS011;557;48.466;7.950;2023-12-28T08:51:09;10.20;;;9.60;;
1136;SDS011;557;48.466;7.950;2023-12-28T08:53:36;10.83;;;9.93;;
1136;SDS011;557;48.466;7.950;2023-12-28T08:56:12;11.30;;;10.60;;
1136;SDS011;557;48.466;7.950;2023-12-28T08:58:41;9.90;;;9.40;;
1136;SDS011;557;48.466;7.950;2023-12-28T09:01:08;10.70;;;9.90;;
1136;SDS011;557;48.466;7.950;2023-12-28T09:03:34;11.00;;;10.20;;
1136;SDS011;557;48.466;7.950;2023-12-28T09:06:01;11.90;;;11.00;;
1136;SDS011;557;48.466;7.950;2023-12-28T09:08:29;11.50;;;10.70;;
1136;SDS011;557;48.466;7.950;2023-12-28T09:10:56;10.07;;;9.37;;
1136;SDS011;557;48.466;7.950;2023-12-28T09:13:23;10.97;;;10.17;;
1136;SDS011;557;48.466;7.950;2023-12-28T09:15:51;10.80;;;10.10;;
1136;SDS011;557;48.466;7.950;2023-12-28T09:18:18;10.20;;;9.60;;
1136;SDS011;557;48.466;7.950;2023-12-28T09:20:45;9.90;;;9.20;;
1136;SDS011;557;48.466;7.950;2023-12-28T09:23:15;9.80;;;9.10;;
1136;SDS011;557;48.466;7.950;2023-12-28T09:25:42;9.57;;;8.97;;
1136;SDS011;557;48.466;7.950;2023-12-28T09:28:09;9.53;;;8.90;;
1136;SDS011;557;48.466;7.950;2023-12-28T09:30:36;8.90;;;8.40;;
1136;SDS011;557;48.466;7.950;2023-12-28T09:33:04;9.70;;;9.03;;
1136;SDS011;557;48.466;7.950;2023-12-28T09:35:32;9.90;;;9.17;;
1136;SDS011;557;48.466;7.950;2023-12-28T09:38:02;11.17;;;10.30;;
1136;SDS011;557;48.466;7.950;2023-12-28T09:40:29;11.13;;;10.30;;
1136;SDS011;557;48.466;7.950;2023-12-28T09:42:57;12.53;;;11.53;;
1136;SDS011;557;48.466;7.950;2023-12-28T09:45:31;12.13;;;11.23;;
1136;SDS011;557;48.466;7.950;2023-12-28T09:47:58;13.13;;;11.83;;
1136;SDS011;557;48.466;7.950;2023-12-28T09:50:29;15.57;;;13.87;;
1136;SDS011;557;48.466;7.950;2023-12-28T09:52:56;13.50;;;12.30;;
1136;SDS011;557;48.466;7.950;2023-12-28T09:55:23;13.20;;;12.07;;
1136;SDS011;557;48.466;7.950;2023-12-28T09:57:51;13.10;;;11.27;;
1136;SDS011;557;48.466;7.950;2023-12-28T10:00:18;13.17;;;11.90;;
1136;SDS011;557;48.466;7.950;2023-12-28T10:02:45;12.00;;;10.87;;
1136;SDS011;557;48.466;7.950;2023-12-28T10:05:12;10.20;;;9.50;;
1136;SDS011;557;48.466;7.950;2023-12-28T10:07:43;11.17;;;10.17;;
1136;SDS011;557;48.466;7.950;2023-12-28T10:10:10;10.53;;;9.67;;
1136;SDS011;557;48.466;7.950;2023-12-28T10:12:37;10.13;;;9.30;;
1136;SDS011;557;48.466;7.950;2023-12-28T10:15:05;11.67;;;10.50;;
1136;SDS011;557;48.466;7.950;2023-12-28T10:17:32;11.03;;;10.10;;
1136;SDS011;557;48.466;7.950;2023-12-28T10:20:00;12.57;;;11.17;;
1136;SDS011;557;48.466;7.950;2023-12-28T10:22:29;12.53;;;11.10;;
1136;SDS011;557;48.466;7.950;2023-12-28T10:24:59;11.90;;;10.43;;
1136;SDS011;557;48.466;7.950;2023-12-28T10:27:27;10.97;;;9.97;;
1136;SDS011;557;48.466;7.950;2023-12-28T10:29:54;11.23;;;9.53;;
1136;SDS011;557;48.466;7.950;2023-12-28T10:32:21;9.00;;;8.30;;
1136;SDS011;557;48.466;7.950;2023-12-28T10:34:51;11.20;;;10.30;;
1136;SDS011;557;48.466;7.950;2023-12-28T10:37:19;12.37;;;11.27;;
1136;SDS011;557;48.466;7.950;2023-12-28T10:39:47;12.53;;;11.30;;
1136;SDS011;557;48.466;7.950;2023-12-28T10:42:20;10.27;;;9.37;;
1136;SDS011;557;48.466;7.950;2023-12-28T10:44:55;10.13;;;9.30;;
1136;SDS011;557;48.466;7.950;2023-12-28T10:47:30;9.00;;;8.30;;
1136;SDS011;557;48.466;7.950;2023-12-28T10:49:58;9.10;;;8.20;;
1136;SDS011;557;48.466;7.950;2023-12-28T10:52:30;9.00;;;8.20;;
1136;SDS011;557;48.466;7.950;2023-12-28T10:55:03;9.43;;;8.53;;
1136;SDS011;557;48.466;7.950;2023-12-28T10:57:50;11.23;;;8.97;;
1136;SDS011;557;48.466;7.950;2023-12-28T11:00:26;10.10;;;8.50;;
1136;SDS011;557;48.466;7.950;2023-12-28T11:02:57;9.97;;;9.13;;
1136;SDS011;557;48.466;7.950;2023-12-28T11:05:28;9.20;;;8.40;;
1136;SDS011;557;48.466;7.950;2023-12-28T11:07:57;9.53;;;8.63;;
1136;SDS011;557;48.466;7.950;2023-12-28T11:10:25;8.97;;;8.13;;
1136;SDS011;557;48.466;7.950;2023-12-28T11:12:57;10.43;;;8.77;;
1136;SDS011;557;48.466;7.950;2023-12-28T11:15:25;8.60;;;7.80;;
1136;SDS011;557;48.466;7.950;2023-12-28T11:17:52;8.57;;;7.77;;
1136;SDS011;557;48.466;7.950;2023-12-28T11:20:19;9.60;;;8.70;;
1136;SDS011;557;48.466;7.950;2023-12-28T11:22:47;10.27;;;9.37;;
1136;SDS011;557;48.466;7.950;2023-12-28T11:25:14;12.27;;;9.77;;
1136;SDS011;557;48.466;7.950;2023-12-28T11:27:43;9.90;;;9.10;;
1136;SDS011;557;48.466;7.950;2023-12-28T11:30:12;9.37;;;8.63;;
1136;SDS011;557;48.466;7.950;2023-12-28T11:32:40;9.40;;;8.53;;
1136;SDS011;557;48.466;7.950;2023-12-28T11:35:08;10.13;;;9.33;;
1136;SDS011;557;48.466;7.950;2023-12-28T11:37:38;14.00;;;10.20;;
1136;SDS011;557;48.466;7.950;2023-12-28T11:40:09;9.20;;;7.43;;
1136;SDS011;557;48.466;7.950;2023-12-28T11:42:46;8.07;;;7.37;;
1136;SDS011;557;48.466;7.950;2023-12-28T11:45:17;8.33;;;7.13;;
1136;SDS011;557;48.466;7.950;2023-12-28T11:47:44;9.63;;;8.03;;
1136;SDS011;557;48.466;7.950;2023-12-28T11:50:11;7.30;;;6.60;;
1136;SDS011;557;48.466;7.950;2023-12-28T11:52:39;7.83;;;7.03;;
1136;SDS011;557;48.466;7.950;2023-12-28T11:55:06;9.20;;;6.73;;
1136;SDS011;557;48.466;7.950;2023-12-28T11:57:33;9.10;;;6.90;;
1136;SDS011;557;48.466;7.950;2023-12-28T12:00:02;8.50;;;5.87;;
1136;SDS011;557;48.466;7.950;2023-12-28T12:02:33;7.70;;;5.70;;
1136;SDS011;557;48.466;7.950;2023-12-28T12:05:00;8.77;;;5.93;;
1136;SDS011;557;48.466;7.950;2023-12-28T12:07:28;7.73;;;6.23;;
1136;SDS011;557;48.466;7.950;2023-12-28T12:09:55;8.10;;;6.87;;
1136;SDS011;557;48.466;7.950;2023-12-28T12:12:22;7.80;;;6.50;;
1136;SDS011;557;48.466;7.950;2023-12-28T12:14:49;45.53;;;28.23;;
1136;SDS011;557;48.466;7.950;2023-12-28T12:17:17;15.03;;;9.90;;
1136;SDS011;557;48.466;7.950;2023-12-28T12:19:46;8.87;;;6.47;;
1136;SDS011;557;48.466;7.950;2023-12-28T12:22:16;7.13;;;6.40;;
1136;SDS011;557;48.466;7.950;2023-12-28T12:24:44;7.97;;;6.57;;
1136;SDS011;557;48.466;7.950;2023-12-28T12:27:13;14.30;;;9.30;;
1136;SDS011;557;48.466;7.950;2023-12-28T12:29:40;13.60;;;10.57;;
1136;SDS011;557;48.466;7.950;2023-12-28T12:32:06;17.33;;;12.97;;
1136;SDS011;557;48.466;7.950;2023-12-28T12:34:34;24.43;;;16.17;;
1136;SDS011;557;48.466;7.950;2023-12-28T12:37:04;18.97;;;13.67;;
1136;SDS011;557;48.466;7.950;2023-12-28T12:39:31;11.07;;;9.83;;
1136;SDS011;557;48.466;7.950;2023-12-28T12:41:58;13.00;;;9.90;;
1136;SDS011;557;48.466;7.950;2023-12-28T12:44:25;11.10;;;9.57;;
1136;SDS011;557;48.466;7.950;2023-12-28T12:46:58;11.13;;;9.53;;
1136;SDS011;557;48.466;7.950;2023-12-28T12:49:25;11.00;;;8.60;;
1136;SDS011;557;48.466;7.950;2023-12-28T12:51:53;8.97;;;7.77;;
1136;SDS011;557;48.466;7.950;2023-12-28T12:54:22;9.30;;;7.20;;
1136;SDS011;557;48.466;7.950;2023-12-28T12:56:49;9.43;;;6.80;;
1136;SDS011;557;48.466;7.950;2023-12-28T12:59:17;8.20;;;5.83;;
1136;SDS011;557;48.466;7.950;2023-12-28T13:01:45;9.03;;;6.87;;
1136;SDS011;557;48.466;7.950;2023-12-28T13:04:13;7.37;;;6.37;;
1136;SDS011;557;48.466;7.950;2023-12-28T13:06:41;10.60;;;6.73;;
1136;SDS011;557;48.466;7.950;2023-12-28T13:09:08;13.30;;;8.63;;
1136;SDS011;557;48.466;7.950;2023-12-28T13:11:38;17.43;;;10.70;;
1136;SDS011;557;48.466;7.950;2023-12-28T13:14:05;15.53;;;10.60;;
1136;SDS011;557;48.466;7.950;2023-12-28T13:16:32;11.77;;;8.47;;
1136;SDS011;557;48.466;7.950;2023-12-28T13:19:00;13.73;;;9.10;;
1136;SDS011;557;48.466;7.950;2023-12-28T13:21:28;33.10;;;17.10;;
1136;SDS011;557;48.466;7.950;2023-12-28T13:23:55;31.17;;;16.00;;
1136;SDS011;557;48.466;7.950;2023-12-28T13:26:24;30.87;;;17.63;;
1136;SDS011;557;48.466;7.950;2023-12-28T13:28:53;21.63;;;13.37;;
1136;SDS011;557;48.466;7.950;2023-12-28T13:31:22;15.60;;;11.20;;
1136;SDS011;557;48.466;7.950;2023-12-28T13:33:50;18.57;;;12.43;;
1136;SDS011;557;48.466;7.950;2023-12-28T13:36:18;34.47;;;18.80;;
1136;SDS011;557;48.466;7.950;2023-12-28T13:38:44;15.87;;;11.50;;
1136;SDS011;557;48.466;7.950;2023-12-28T13:41:11;14.83;;;10.20;;
1136;SDS011;557;48.466;7.950;2023-12-28T13:43:38;11.20;;;9.87;;
1136;SDS011;557;48.466;7.950;2023-12-28T13:46:06;12.37;;;8.97;;
1136;SDS011;557;48.466;7.950;2023-12-28T13:48:34;9.93;;;8.20;;
1136;SDS011;557;48.466;7.950;2023-12-28T13:51:04;10.10;;;8.17;;
1136;SDS011;557;48.466;7.950;2023-12-28T13:53:31;12.40;;;8.27;;
1136;SDS011;557;48.466;7.950;2023-12-28T13:56:00;14.10;;;10.90;;
1136;SDS011;557;48.466;7.950;2023-12-28T13:58:28;21.40;;;14.07;;
1136;SDS011;557;48.466;7.950;2023-12-28T14:00:55;32.50;;;17.90;;
1136;SDS011;557;48.466;7.950;2023-12-28T14:03:23;19.07;;;12.50;;
1136;SDS011;557;48.466;7.950;2023-12-28T14:05:50;20.47;;;13.20;;
1136;SDS011;557;48.466;7.950;2023-12-28T14:08:17;19.90;;;13.00;;
1136;SDS011;557;48.466;7.950;2023-12-28T14:10:43;11.80;;;10.10;;
1136;SDS011;557;48.466;7.950;2023-12-28T14:13:11;15.80;;;11.27;;
1136;SDS011;557;48.466;7.950;2023-12-28T14:15:37;13.37;;;11.07;;
1136;SDS011;557;48.466;7.950;2023-12-28T14:18:04;13.60;;;12.20;;
1136;SDS011;557;48.466;7.950;2023-12-28T14:20:33;10.47;;;6.70;;
1136;SDS011;557;48.466;7.950;2023-12-28T14:23:00;9.40;;;7.17;;
1136;SDS011;557;48.466;7.950;2023-12-28T14:25:28;11.60;;;8.40;;
1136;SDS011;557;48.466;7.950;2023-12-28T14:27:55;8.53;;;7.10;;
1136;SDS011;557;48.466;7.950;2023-12-28T14:30:23;10.67;;;8.60;;
1136;SDS011;557;48.466;7.950;2023-12-28T14:32:51;10.40;;;7.60;;
1136;SDS011;557;48.466;7.950;2023-12-28T14:35:18;6.63;;;5.10;;
1136;SDS011;557;48.466;7.950;2023-12-28T14:37:47;5.97;;;5.00;;
1136;SDS011;557;48.466;7.950;2023-12-28T14:40:14;7.20;;;5.73;;
1136;SDS011;557;48.466;7.950;2023-12-28T14:42:41;9.30;;;6.60;;
1136;SDS011;557;48.466;7.950;2023-12-28T14:45:08;10.30;;;8.10;;
1136;SDS011;557;48.466;7.950;2023-12-28T14:47:35;9.00;;;6.97;;
1136;SDS011;557;48.466;7.950;2023-12-28T14:50:02;6.47;;;5.40;;
1136;SDS011;557;48.466;7.950;2023-12-28T14:52:30;6.20;;;4.87;;
1136;SDS011;557;48.466;7.950;2023-12-28T14:54:58;5.40;;;4.50;;
1136;SDS011;557;48.466;7.950;2023-12-28T14:57:25;5.50;;;4.17;;
1136;SDS011;557;48.466;7.950;2023-12-28T14:59:52;6.90;;;4.60;;
1136;SDS011;557;48.466;7.950;2023-12-28T15:02:19;8.60;;;4.87;;
1136;SDS011;557;48.466;7.950;2023-12-28T15:04:46;5.93;;;4.40;;
1136;SDS011;557;48.466;7.950;2023-12-28T15:07:12;5.87;;;5.00;;
1136;SDS011;557;48.466;7.950;2023-12-28T15:09:39;7.40;;;4.20;;
1136;SDS011;557;48.466;7.950;2023-12-28T15:12:08;6.10;;;4.30;;
1136;SDS011;557;48.466;7.950;2023-12-28T15:14:36;7.03;;;4.80;;
1136;SDS011;557;48.466;7.950;2023-12-28T15:17:03;7.47;;;5.50;;
1136;SDS011;557;48.466;7.950;2023-12-28T15:19:31;6.80;;;5.83;;
1136;SDS011;557;48.466;7.950;2023-12-28T15:21:58;7.23;;;5.63;;
1136;SDS011;557;48.466;7.950;2023-12-28T15:24:26;7.90;;;6.07;;
1136;SDS011;557;48.466;7.950;2023-12-28T15:26:53;6.50;;;4.30;;